• pl
  • eng

Awiacja
WIADOMOŚCI
ostatnia aktualizacja: 26.09.2019 09:57
Uprzejmie informujemy, że od dnia 2.09.2019 jest dostępna w formie testowej prognoza GAFOR. Prosimy o przesyłanie na adres gafor@imgw.pl uwag i sugestii, które przyczynią się do rozwoju produktu.
TAF FT 06:30 11.12.2019
  • WIND
  • SIGNIFICANT EURO
  • SIGNIFICANT
  • SIGMET
  • AIRMET
  • TAF FC
  • TAF FT
  • METAR GG30
  • METAR GG00


TAF AMD EPBY 110628Z 1106/1206 16010KT CAVOK
PROB40 1106/1108 4500 BR BKN003
PROB40 1200/1206 BKN005=

TAF EPGD 110530Z 1106/1206 18010KT 9999 BKN005
PROB40 TEMPO 1106/1108 SCT005
BECMG 1108/1110 CAVOK
PROB40 1123/1206 BKN005=

TAF EPKK 110530Z 1106/1206 VRB02KT 2000 BR NSC
PROB30 TEMPO 1106/1108 0600 FZFG BKN002
BECMG 1107/1110 CAVOK
BECMG 1121/1124 1200 BR
PROB40 1200/1206 0800 FZFG BKN002=

TAF AMD EPKT 110600Z 1106/1206 12005KT 1600 BR NSC
BECMG 1106/1109 CAVOK=

TAF EPLL 110530Z 1106/1206 VRB02KT 3000 BR SCT005
PROB40 TEMPO 1106/1108 0800 FZFG OVC001
BECMG 1108/1110 15010KT 8000 SCT025=

TAF EPMO 110530Z 1106/1206 VRB04KT 7000 NSC
TEMPO 1106/1109 3000 BR BKN006
PROB40 1106/1108 0800 FZFG BKN001
BECMG 1108/1110 14010KT
PROB40 1120/1206 4500 BR BKN004 BKN007=

TAF EPPO 110530Z 1106/1206 16010KT CAVOK=

TAF EPRZ 110530Z 1106/1206 VRB02KT 9999 OVC040
TEMPO 1106/1109 BKN010
TEMPO 1116/1124 3000 BR BKN012
BECMG 1121/1124 15010KT=

TAF EPSC 110530Z 1106/1206 18012KT CAVOK
PROB40 TEMPO 1106/1114 18017G27KT
BECMG 1122/1124 -RA BKN015
BECMG 1200/1202 4000 -RASN BKN007
TEMPO 1200/1206 2000 SNRA BKN003
PROB40 TEMPO 1200/1206 1400 -FZRA=

TAF EPWA 110530Z 1106/1206 VRB04KT 8000 NSC
TEMPO 1106/1109 3000 BR BKN006
PROB40 1106/1108 0800 FZFG BKN001
BECMG 1108/1110 15010KT
PROB40 1120/1206 4500 BR BKN004 BKN007=

TAF EPWR 110530Z 1106/1206 15010KT CAVOK=
Awiacja.imgw.pl jest pogodowym serwisem informacyjnym
Instytutu Meteorologii i Gospodarki Wodnej Państwowego Instytutu Badawczego.
Copyright IMGW PIB 2009-2019© Wszelkie prawa zastrzeżone.